Airfield :
LOGIN :

Register | Disclaimer

   EN    FR    IT 

 










Legend :    VFR   Marginal VFR   IFR   Intensive IFR   Very Intensive IFR
Visi :
Ceiling :
>= 8 km
>= 3000ft
5 to 8 km
1000 to 3000 ft
1500m to 5 km
500 to 1000 ft
800 to 1500m
200 to 500 ft
< 800m
< 200 ft
Symbols :   Thunderstorms  Fog  Heavy snow  Heavy precipitations  Wind > 20 kt
SIGMETs :     Misc.  Thunderstorms  Icing  Turbulence  Mountain Waves  Volcanic Ashes







- Airport Elevation : 15 ft
- IATA code : BHD
- Download approach charts


EGAC - George Best Belfast City

CURRENT METAR :
  • 281620Z 21015KT 9999 FEW025 SCT030 17/11 Q0998

EXPIRED METARs :
  • 281550Z 22015KT 9999 FEW025 SCT030 18/12 Q0998
  • 281520Z 21015KT 9999 FEW023 SCT026 17/12 Q0998
  • 281450Z 19013KT 9999 FEW023 SCT026 16/14 Q0999
  • 281420Z 23014KT 9999 VCSH FEW020 SCT025 BKN028 17/12 Q0999
  • 281350Z 21018KT 9999 FEW019 SCT025 18/12 Q0999

TAF TAF EGAC
Valid from the 28 at 09:00 until the 28 at 18:00 UTC


280758Z 2809/2818 22012KT 9999 FEW015 SCT025
TEMPO 2809/2818 7000 SHRA
ATIS : +44 02890 935 124
No reported NOTAMs for that airfield.



MET'MAP, your aeronautical weather chart ! - Copyright ORBIFLY December 2007 - Disclaimer

ORBIFLY MET'MAP TEAM :

Programming & Development : Alexandra Zaïnal
Concept & Development : Baudouin d'Aumeries
Co-Development & Prog : Marc-Olivier Méhu
Technical & hardware support : Manuel Goepfert

Contact : metmap@orbifly.com




SOURCES & CREDITS :

   NOAA